sensor_id;sensor_type;location;lat;lon;timestamp;temperature;humidity
33903;DHT22;20194;50.950;5.346;2023-05-07T00:01:50;17.90;28.80
33903;DHT22;20194;50.950;5.346;2023-05-07T00:04:16;17.90;27.70
33903;DHT22;20194;50.950;5.346;2023-05-07T00:06:41;17.90;27.30
33903;DHT22;20194;50.950;5.346;2023-05-07T00:09:07;18.00;26.20
33903;DHT22;20194;50.950;5.346;2023-05-07T00:11:33;18.00;25.20
33903;DHT22;20194;50.950;5.346;2023-05-07T00:13:59;18.00;25.20
33903;DHT22;20194;50.950;5.346;2023-05-07T00:16:25;18.00;25.20
33903;DHT22;20194;50.950;5.346;2023-05-07T00:18:51;18.10;25.30
33903;DHT22;20194;50.950;5.346;2023-05-07T00:21:16;18.00;25.90
33903;DHT22;20194;50.950;5.346;2023-05-07T00:23:42;17.90;27.40
33903;DHT22;20194;50.950;5.346;2023-05-07T00:26:08;17.80;29.30
33903;DHT22;20194;50.950;5.346;2023-05-07T00:28:33;17.70;30.00
33903;DHT22;20194;50.950;5.346;2023-05-07T00:30:59;17.50;33.20
33903;DHT22;20194;50.950;5.346;2023-05-07T00:33:25;17.60;34.30
33903;DHT22;20194;50.950;5.346;2023-05-07T00:35:52;17.70;32.00
33903;DHT22;20194;50.950;5.346;2023-05-07T00:38:19;17.70;30.60
33903;DHT22;20194;50.950;5.346;2023-05-07T00:40:45;17.70;29.80
33903;DHT22;20194;50.950;5.346;2023-05-07T00:43:11;17.70;30.40
33903;DHT22;20194;50.950;5.346;2023-05-07T00:45:38;17.70;30.80
33903;DHT22;20194;50.950;5.346;2023-05-07T00:48:04;17.60;30.80
33903;DHT22;20194;50.950;5.346;2023-05-07T00:50:31;17.60;32.70
33903;DHT22;20194;50.950;5.346;2023-05-07T00:52:58;17.50;33.10
33903;DHT22;20194;50.950;5.346;2023-05-07T00:55:25;17.50;34.20
33903;DHT22;20194;50.950;5.346;2023-05-07T00:57:50;17.50;34.90
33903;DHT22;20194;50.950;5.346;2023-05-07T01:00:17;17.50;35.00
33903;DHT22;20194;50.950;5.346;2023-05-07T01:02:44;17.60;33.60
33903;DHT22;20194;50.950;5.346;2023-05-07T01:05:12;17.40;35.60
33903;DHT22;20194;50.950;5.346;2023-05-07T01:07:40;17.20;40.60
33903;DHT22;20194;50.950;5.346;2023-05-07T01:10:06;17.30;39.40
33903;DHT22;20194;50.950;5.346;2023-05-07T01:12:34;17.20;37.50
33903;DHT22;20194;50.950;5.346;2023-05-07T01:15:01;17.20;41.20
33903;DHT22;20194;50.950;5.346;2023-05-07T01:17:27;17.30;37.90
33903;DHT22;20194;50.950;5.346;2023-05-07T01:19:53;17.20;38.10
33903;DHT22;20194;50.950;5.346;2023-05-07T01:22:35;17.10;40.50
33903;DHT22;20194;50.950;5.346;2023-05-07T01:25:03;17.00;41.90
33903;DHT22;20194;50.950;5.346;2023-05-07T01:27:29;17.00;42.50
33903;DHT22;20194;50.950;5.346;2023-05-07T01:29:54;17.10;41.50
33903;DHT22;20194;50.950;5.346;2023-05-07T01:35:00;17.30;38.60
33903;DHT22;20194;50.950;5.346;2023-05-07T01:37:26;17.40;37.60
33903;DHT22;20194;50.950;5.346;2023-05-07T01:39:53;17.40;35.50
33903;DHT22;20194;50.950;5.346;2023-05-07T01:42:20;17.50;34.70
33903;DHT22;20194;50.950;5.346;2023-05-07T01:44:46;17.60;33.10
33903;DHT22;20194;50.950;5.346;2023-05-07T01:47:12;17.50;33.50
33903;DHT22;20194;50.950;5.346;2023-05-07T01:49:39;17.50;33.50
33903;DHT22;20194;50.950;5.346;2023-05-07T01:52:05;17.50;33.80
33903;DHT22;20194;50.950;5.346;2023-05-07T01:54:31;17.50;33.70
33903;DHT22;20194;50.950;5.346;2023-05-07T01:56:57;17.60;33.80
33903;DHT22;20194;50.950;5.346;2023-05-07T01:59:22;17.60;32.40
33903;DHT22;20194;50.950;5.346;2023-05-07T02:01:48;17.60;32.10
33903;DHT22;20194;50.950;5.346;2023-05-07T02:04:14;17.50;32.50
33903;DHT22;20194;50.950;5.346;2023-05-07T02:06:40;17.60;31.70
33903;DHT22;20194;50.950;5.346;2023-05-07T02:09:05;17.70;31.30
33903;DHT22;20194;50.950;5.346;2023-05-07T02:11:31;17.60;30.30
33903;DHT22;20194;50.950;5.346;2023-05-07T02:13:57;17.70;30.00
33903;DHT22;20194;50.950;5.346;2023-05-07T02:16:23;17.70;29.10
33903;DHT22;20194;50.950;5.346;2023-05-07T02:18:49;17.60;29.60
33903;DHT22;20194;50.950;5.346;2023-05-07T02:21:15;17.40;33.90
33903;DHT22;20194;50.950;5.346;2023-05-07T02:23:41;17.20;37.20
33903;DHT22;20194;50.950;5.346;2023-05-07T02:26:07;16.90;42.60
33903;DHT22;20194;50.950;5.346;2023-05-07T02:28:32;17.00;42.20
33903;DHT22;20194;50.950;5.346;2023-05-07T02:31:02;17.20;40.60
33903;DHT22;20194;50.950;5.346;2023-05-07T02:33:28;17.30;37.80
33903;DHT22;20194;50.950;5.346;2023-05-07T02:35:54;17.40;36.40
33903;DHT22;20194;50.950;5.346;2023-05-07T02:38:19;17.40;35.00
33903;DHT22;20194;50.950;5.346;2023-05-07T02:40:45;17.50;34.10
33903;DHT22;20194;50.950;5.346;2023-05-07T02:43:11;17.40;34.40
33903;DHT22;20194;50.950;5.346;2023-05-07T02:45:36;17.50;34.10
33903;DHT22;20194;50.950;5.346;2023-05-07T02:48:03;17.50;33.20
33903;DHT22;20194;50.950;5.346;2023-05-07T02:50:29;17.40;35.00
33903;DHT22;20194;50.950;5.346;2023-05-07T02:52:55;17.30;37.20
33903;DHT22;20194;50.950;5.346;2023-05-07T02:55:21;17.20;37.80
33903;DHT22;20194;50.950;5.346;2023-05-07T02:57:47;17.10;38.40
33903;DHT22;20194;50.950;5.346;2023-05-07T03:00:20;17.00;42.50
33903;DHT22;20194;50.950;5.346;2023-05-07T03:02:46;16.80;47.70
33903;DHT22;20194;50.950;5.346;2023-05-07T03:05:12;17.00;44.60
33903;DHT22;20194;50.950;5.346;2023-05-07T03:07:39;17.10;42.10
33903;DHT22;20194;50.950;5.346;2023-05-07T03:10:06;17.20;38.90
33903;DHT22;20194;50.950;5.346;2023-05-07T03:12:32;17.10;40.80
33903;DHT22;20194;50.950;5.346;2023-05-07T03:14:58;17.10;40.50
33903;DHT22;20194;50.950;5.346;2023-05-07T03:17:23;17.00;41.80
33903;DHT22;20194;50.950;5.346;2023-05-07T03:19:49;17.00;42.70
33903;DHT22;20194;50.950;5.346;2023-05-07T03:22:15;17.10;42.30
33903;DHT22;20194;50.950;5.346;2023-05-07T03:24:40;17.20;40.70
33903;DHT22;20194;50.950;5.346;2023-05-07T03:27:06;17.00;43.70
33903;DHT22;20194;50.950;5.346;2023-05-07T03:29:32;17.10;41.80
33903;DHT22;20194;50.950;5.346;2023-05-07T03:31:58;17.10;42.20
33903;DHT22;20194;50.950;5.346;2023-05-07T03:34:24;17.20;40.40
33903;DHT22;20194;50.950;5.346;2023-05-07T03:36:50;17.30;38.90
33903;DHT22;20194;50.950;5.346;2023-05-07T03:39:15;17.30;38.40
33903;DHT22;20194;50.950;5.346;2023-05-07T03:41:42;17.30;37.50
33903;DHT22;20194;50.950;5.346;2023-05-07T03:44:07;17.00;41.70
33903;DHT22;20194;50.950;5.346;2023-05-07T03:46:33;16.80;46.00
33903;DHT22;20194;50.950;5.346;2023-05-07T03:48:59;16.90;45.80
33903;DHT22;20194;50.950;5.346;2023-05-07T03:51:25;16.80;46.30
33903;DHT22;20194;50.950;5.346;2023-05-07T03:53:51;16.80;48.20
33903;DHT22;20194;50.950;5.346;2023-05-07T03:56:22;16.90;46.00
33903;DHT22;20194;50.950;5.346;2023-05-07T03:58:48;17.00;43.70
33903;DHT22;20194;50.950;5.346;2023-05-07T04:01:14;17.00;43.00
33903;DHT22;20194;50.950;5.346;2023-05-07T04:03:40;17.00;43.90
33903;DHT22;20194;50.950;5.346;2023-05-07T04:06:06;16.90;43.90
33903;DHT22;20194;50.950;5.346;2023-05-07T04:08:32;17.10;42.50
33903;DHT22;20194;50.950;5.346;2023-05-07T04:10:58;17.00;43.50
33903;DHT22;20194;50.950;5.346;2023-05-07T04:13:25;17.00;44.20
33903;DHT22;20194;50.950;5.346;2023-05-07T04:15:52;17.10;42.10
33903;DHT22;20194;50.950;5.346;2023-05-07T04:18:17;17.20;40.80
33903;DHT22;20194;50.950;5.346;2023-05-07T04:20:44;17.20;41.20
33903;DHT22;20194;50.950;5.346;2023-05-07T04:23:09;17.20;40.30
33903;DHT22;20194;50.950;5.346;2023-05-07T04:25:35;17.30;40.00
33903;DHT22;20194;50.950;5.346;2023-05-07T04:28:01;17.30;38.70
33903;DHT22;20194;50.950;5.346;2023-05-07T04:30:27;17.40;37.80
33903;DHT22;20194;50.950;5.346;2023-05-07T04:32:53;17.40;36.80
33903;DHT22;20194;50.950;5.346;2023-05-07T04:35:18;17.40;35.60
33903;DHT22;20194;50.950;5.346;2023-05-07T04:37:44;17.40;36.30
33903;DHT22;20194;50.950;5.346;2023-05-07T04:40:10;17.30;38.10
33903;DHT22;20194;50.950;5.346;2023-05-07T04:42:36;17.10;41.90
33903;DHT22;20194;50.950;5.346;2023-05-07T04:45:02;17.00;42.40
33903;DHT22;20194;50.950;5.346;2023-05-07T04:47:28;16.90;44.20
33903;DHT22;20194;50.950;5.346;2023-05-07T04:49:54;16.90;44.30
33903;DHT22;20194;50.950;5.346;2023-05-07T04:52:19;16.90;44.90
33903;DHT22;20194;50.950;5.346;2023-05-07T04:54:46;16.90;44.40
33903;DHT22;20194;50.950;5.346;2023-05-07T04:57:11;16.70;46.50
33903;DHT22;20194;50.950;5.346;2023-05-07T04:59:37;16.80;47.20
33903;DHT22;20194;50.950;5.346;2023-05-07T05:02:03;16.90;46.10
33903;DHT22;20194;50.950;5.346;2023-05-07T05:04:31;16.90;44.10
33903;DHT22;20194;50.950;5.346;2023-05-07T05:06:58;16.80;48.80
33903;DHT22;20194;50.950;5.346;2023-05-07T05:09:23;16.90;44.50
33903;DHT22;20194;50.950;5.346;2023-05-07T05:11:49;17.00;44.40
33903;DHT22;20194;50.950;5.346;2023-05-07T05:14:15;17.10;43.60
33903;DHT22;20194;50.950;5.346;2023-05-07T05:16:40;17.00;44.40
33903;DHT22;20194;50.950;5.346;2023-05-07T05:19:06;17.00;44.60
33903;DHT22;20194;50.950;5.346;2023-05-07T05:21:32;17.10;43.70
33903;DHT22;20194;50.950;5.346;2023-05-07T05:23:58;17.00;44.30
33903;DHT22;20194;50.950;5.346;2023-05-07T05:26:23;17.20;44.00
33903;DHT22;20194;50.950;5.346;2023-05-07T05:28:49;17.20;44.30
33903;DHT22;20194;50.950;5.346;2023-05-07T05:31:16;17.30;43.30
33903;DHT22;20194;50.950;5.346;2023-05-07T05:33:42;17.40;42.10
33903;DHT22;20194;50.950;5.346;2023-05-07T05:36:11;17.50;41.10
33903;DHT22;20194;50.950;5.346;2023-05-07T05:38:38;17.50;40.90
33903;DHT22;20194;50.950;5.346;2023-05-07T05:41:07;17.40;42.90
33903;DHT22;20194;50.950;5.346;2023-05-07T05:43:33;17.50;42.30
33903;DHT22;20194;50.950;5.346;2023-05-07T05:45:58;17.50;40.30
33903;DHT22;20194;50.950;5.346;2023-05-07T05:48:24;17.40;42.30
33903;DHT22;20194;50.950;5.346;2023-05-07T05:50:50;17.40;44.30
33903;DHT22;20194;50.950;5.346;2023-05-07T05:53:15;17.20;43.90
33903;DHT22;20194;50.950;5.346;2023-05-07T05:55:41;17.00;49.90
33903;DHT22;20194;50.950;5.346;2023-05-07T05:58:08;17.30;48.40
33903;DHT22;20194;50.950;5.346;2023-05-07T06:00:34;17.50;46.70
33903;DHT22;20194;50.950;5.346;2023-05-07T06:03:00;17.60;44.30
33903;DHT22;20194;50.950;5.346;2023-05-07T06:05:26;17.70;43.30
33903;DHT22;20194;50.950;5.346;2023-05-07T06:07:51;17.80;40.40
33903;DHT22;20194;50.950;5.346;2023-05-07T06:10:17;18.00;38.00
33903;DHT22;20194;50.950;5.346;2023-05-07T06:12:43;17.80;37.00
33903;DHT22;20194;50.950;5.346;2023-05-07T06:15:09;17.80;38.50
33903;DHT22;20194;50.950;5.346;2023-05-07T06:17:35;17.90;37.80
33903;DHT22;20194;50.950;5.346;2023-05-07T06:20:01;18.00;33.00
33903;DHT22;20194;50.950;5.346;2023-05-07T06:22:27;18.20;31.20
33903;DHT22;20194;50.950;5.346;2023-05-07T06:24:53;18.30;28.70
33903;DHT22;20194;50.950;5.346;2023-05-07T06:27:18;18.00;31.50
33903;DHT22;20194;50.950;5.346;2023-05-07T06:29:44;18.00;31.20
33903;DHT22;20194;50.950;5.346;2023-05-07T06:32:11;18.10;31.10
33903;DHT22;20194;50.950;5.346;2023-05-07T06:34:37;18.00;32.10
33903;DHT22;20194;50.950;5.346;2023-05-07T06:37:03;18.10;34.50
33903;DHT22;20194;50.950;5.346;2023-05-07T06:39:28;18.20;30.00
33903;DHT22;20194;50.950;5.346;2023-05-07T06:41:54;18.30;30.00
33903;DHT22;20194;50.950;5.346;2023-05-07T06:44:20;18.50;25.90
33903;DHT22;20194;50.950;5.346;2023-05-07T06:46:46;18.60;24.50
33903;DHT22;20194;50.950;5.346;2023-05-07T06:49:15;18.80;23.90
33903;DHT22;20194;50.950;5.346;2023-05-07T06:51:40;18.80;23.30
33903;DHT22;20194;50.950;5.346;2023-05-07T06:54:07;18.70;19.70
33903;DHT22;20194;50.950;5.346;2023-05-07T06:56:33;18.70;17.00
33903;DHT22;20194;50.950;5.346;2023-05-07T06:59:03;18.80;19.60
33903;DHT22;20194;50.950;5.346;2023-05-07T07:01:29;18.90;14.10
33903;DHT22;20194;50.950;5.346;2023-05-07T07:03:55;19.00;16.20
33903;DHT22;20194;50.950;5.346;2023-05-07T07:06:21;19.10;16.00
33903;DHT22;20194;50.950;5.346;2023-05-07T07:08:46;19.20;15.40
33903;DHT22;20194;50.950;5.346;2023-05-07T07:11:12;19.00;12.00
33903;DHT22;20194;50.950;5.346;2023-05-07T07:13:38;18.80;16.80
33903;DHT22;20194;50.950;5.346;2023-05-07T07:16:03;18.50;21.50
33903;DHT22;20194;50.950;5.346;2023-05-07T07:18:29;18.40;21.90
33903;DHT22;20194;50.950;5.346;2023-05-07T07:20:55;18.70;21.90
33903;DHT22;20194;50.950;5.346;2023-05-07T07:23:21;18.80;18.30
33903;DHT22;20194;50.950;5.346;2023-05-07T07:25:46;19.10;16.50
33903;DHT22;20194;50.950;5.346;2023-05-07T07:28:12;19.10;13.70
33903;DHT22;20194;50.950;5.346;2023-05-07T07:30:38;19.00;13.90
33903;DHT22;20194;50.950;5.346;2023-05-07T07:33:04;18.60;17.30
33903;DHT22;20194;50.950;5.346;2023-05-07T07:35:33;18.30;23.10
33903;DHT22;20194;50.950;5.346;2023-05-07T07:37:59;18.20;26.70
33903;DHT22;20194;50.950;5.346;2023-05-07T07:40:25;18.50;24.20
33903;DHT22;20194;50.950;5.346;2023-05-07T07:42:52;18.80;20.40
33903;DHT22;20194;50.950;5.346;2023-05-07T07:45:18;18.80;18.40
33903;DHT22;20194;50.950;5.346;2023-05-07T07:47:44;19.00;17.20
33903;DHT22;20194;50.950;5.346;2023-05-07T07:50:10;19.10;15.40
33903;DHT22;20194;50.950;5.346;2023-05-07T07:52:36;19.20;13.00
33903;DHT22;20194;50.950;5.346;2023-05-07T07:55:02;19.10;12.50
33903;DHT22;20194;50.950;5.346;2023-05-07T07:57:28;19.00;14.80
33903;DHT22;20194;50.950;5.346;2023-05-07T07:59:54;19.10;11.10
33903;DHT22;20194;50.950;5.346;2023-05-07T08:02:19;18.80;13.90
33903;DHT22;20194;50.950;5.346;2023-05-07T08:04:45;18.90;15.60
33903;DHT22;20194;50.950;5.346;2023-05-07T08:07:11;19.20;13.50
33903;DHT22;20194;50.950;5.346;2023-05-07T08:09:38;19.50;11.00
33903;DHT22;20194;50.950;5.346;2023-05-07T08:12:07;19.40;9.00
33903;DHT22;20194;50.950;5.346;2023-05-07T08:14:34;19.60;7.70
33903;DHT22;20194;50.950;5.346;2023-05-07T08:17:01;19.50;5.60
33903;DHT22;20194;50.950;5.346;2023-05-07T08:19:27;19.50;3.10
33903;DHT22;20194;50.950;5.346;2023-05-07T08:21:53;19.20;8.40
33903;DHT22;20194;50.950;5.346;2023-05-07T08:24:19;19.20;11.70
33903;DHT22;20194;50.950;5.346;2023-05-07T08:26:45;19.50;9.60
33903;DHT22;20194;50.950;5.346;2023-05-07T08:29:11;19.60;4.30
33903;DHT22;20194;50.950;5.346;2023-05-07T08:31:36;19.70;1.00
33903;DHT22;20194;50.950;5.346;2023-05-07T08:34:04;19.70;1.00
33903;DHT22;20194;50.950;5.346;2023-05-07T08:36:30;19.60;1.00
33903;DHT22;20194;50.950;5.346;2023-05-07T08:38:56;19.50;1.00
33903;DHT22;20194;50.950;5.346;2023-05-07T08:41:21;19.40;1.00
33903;DHT22;20194;50.950;5.346;2023-05-07T08:43:48;19.50;1.20
33903;DHT22;20194;50.950;5.346;2023-05-07T08:46:19;19.50;1.00
33903;DHT22;20194;50.950;5.346;2023-05-07T08:48:47;19.50;1.90
33903;DHT22;20194;50.950;5.346;2023-05-07T08:51:15;19.70;1.00
33903;DHT22;20194;50.950;5.346;2023-05-07T08:53:41;19.90;1.00
33903;DHT22;20194;50.950;5.346;2023-05-07T08:56:08;19.90;1.00
33903;DHT22;20194;50.950;5.346;2023-05-07T08:58:34;20.00;1.00
33903;DHT22;20194;50.950;5.346;2023-05-07T09:01:08;20.10;1.00
33903;DHT22;20194;50.950;5.346;2023-05-07T09:03:36;20.10;1.00
33903;DHT22;20194;50.950;5.346;2023-05-07T09:06:01;20.20;1.00
33903;DHT22;20194;50.950;5.346;2023-05-07T09:08:27;20.10;1.00
33903;DHT22;20194;50.950;5.346;2023-05-07T09:10:53;20.30;1.00
33903;DHT22;20194;50.950;5.346;2023-05-07T09:13:20;20.50;1.00
33903;DHT22;20194;50.950;5.346;2023-05-07T09:15:45;20.80;1.00
33903;DHT22;20194;50.950;5.346;2023-05-07T09:18:12;21.00;1.00
33903;DHT22;20194;50.950;5.346;2023-05-07T09:20:38;21.20;1.00
33903;DHT22;20194;50.950;5.346;2023-05-07T09:23:06;21.10;1.00
33903;DHT22;20194;50.950;5.346;2023-05-07T09:25:33;21.00;1.00
33903;DHT22;20194;50.950;5.346;2023-05-07T09:28:01;21.10;1.00
33903;DHT22;20194;50.950;5.346;2023-05-07T09:30:31;21.30;1.00
33903;DHT22;20194;50.950;5.346;2023-05-07T09:33:03;21.50;1.00
33903;DHT22;20194;50.950;5.346;2023-05-07T09:35:30;21.70;1.00
33903;DHT22;20194;50.950;5.346;2023-05-07T09:37:57;21.80;1.00
33903;DHT22;20194;50.950;5.346;2023-05-07T09:40:25;22.00;1.00
33903;DHT22;20194;50.950;5.346;2023-05-07T09:42:51;22.10;1.00
33903;DHT22;20194;50.950;5.346;2023-05-07T09:45:27;22.20;1.00
33903;DHT22;20194;50.950;5.346;2023-05-07T09:47:55;22.30;1.00
33903;DHT22;20194;50.950;5.346;2023-05-07T09:50:29;22.50;1.00
33903;DHT22;20194;50.950;5.346;2023-05-07T09:52:55;22.90;1.00
33903;DHT22;20194;50.950;5.346;2023-05-07T09:55:22;22.80;1.00
33903;DHT22;20194;50.950;5.346;2023-05-07T09:57:52;23.00;1.00
33903;DHT22;20194;50.950;5.346;2023-05-07T10:00:22;22.90;1.00
33903;DHT22;20194;50.950;5.346;2023-05-07T10:02:49;22.90;1.00
33903;DHT22;20194;50.950;5.346;2023-05-07T10:05:18;22.90;1.00
33903;DHT22;20194;50.950;5.346;2023-05-07T10:07:44;22.50;1.00
33903;DHT22;20194;50.950;5.346;2023-05-07T10:10:10;22.10;1.00
33903;DHT22;20194;50.950;5.346;2023-05-07T10:12:36;22.00;1.00
33903;DHT22;20194;50.950;5.346;2023-05-07T10:15:09;21.90;1.00
33903;DHT22;20194;50.950;5.346;2023-05-07T10:17:37;21.70;1.00
33903;DHT22;20194;50.950;5.346;2023-05-07T10:20:03;21.50;1.00
33903;DHT22;20194;50.950;5.346;2023-05-07T10:22:34;21.50;1.00
33903;DHT22;20194;50.950;5.346;2023-05-07T10:25:03;21.40;1.00
33903;DHT22;20194;50.950;5.346;2023-05-07T10:27:32;21.20;1.00
33903;DHT22;20194;50.950;5.346;2023-05-07T10:32:55;20.80;1.00
33903;DHT22;20194;50.950;5.346;2023-05-07T10:35:26;20.60;1.00
33903;DHT22;20194;50.950;5.346;2023-05-07T10:37:55;20.60;1.00
33903;DHT22;20194;50.950;5.346;2023-05-07T10:40:21;20.70;1.00
33903;DHT22;20194;50.950;5.346;2023-05-07T10:43:00;20.70;1.00
33903;DHT22;20194;50.950;5.346;2023-05-07T10:45:27;20.60;1.00
33903;DHT22;20194;50.950;5.346;2023-05-07T10:48:12;20.60;1.00
33903;DHT22;20194;50.950;5.346;2023-05-07T10:50:39;20.70;1.00
33903;DHT22;20194;50.950;5.346;2023-05-07T10:55:46;20.70;1.00
33903;DHT22;20194;50.950;5.346;2023-05-07T11:00:47;20.80;1.00
33903;DHT22;20194;50.950;5.346;2023-05-07T11:03:14;20.90;1.00
33903;DHT22;20194;50.950;5.346;2023-05-07T11:05:41;20.90;1.00
33903;DHT22;20194;50.950;5.346;2023-05-07T11:08:08;20.80;1.00
33903;DHT22;20194;50.950;5.346;2023-05-07T11:13:19;20.70;1.00
33903;DHT22;20194;50.950;5.346;2023-05-07T11:16:04;20.50;1.00
33903;DHT22;20194;50.950;5.346;2023-05-07T11:18:47;20.30;1.00
33903;DHT22;20194;50.950;5.346;2023-05-07T11:21:35;20.00;5.00
33903;DHT22;20194;50.950;5.346;2023-05-07T11:24:02;20.00;11.20
33903;DHT22;20194;50.950;5.346;2023-05-07T11:26:31;19.80;22.20
33903;DHT22;20194;50.950;5.346;2023-05-07T11:28:57;19.90;23.10
33903;DHT22;20194;50.950;5.346;2023-05-07T11:31:27;19.90;24.30
33903;DHT22;20194;50.950;5.346;2023-05-07T11:33:54;20.00;26.30
33903;DHT22;20194;50.950;5.346;2023-05-07T11:36:22;19.60;30.90
33903;DHT22;20194;50.950;5.346;2023-05-07T11:38:48;19.30;37.70
33903;DHT22;20194;50.950;5.346;2023-05-07T11:41:16;19.30;40.70
33903;DHT22;20194;50.950;5.346;2023-05-07T11:43:56;19.20;46.00
33903;DHT22;20194;50.950;5.346;2023-05-07T11:46:23;19.20;50.90
33903;DHT22;20194;50.950;5.346;2023-05-07T11:48:48;19.10;42.80
33903;DHT22;20194;50.950;5.346;2023-05-07T11:51:19;19.00;48.40
33903;DHT22;20194;50.950;5.346;2023-05-07T11:53:45;19.10;48.40
33903;DHT22;20194;50.950;5.346;2023-05-07T11:56:12;19.00;52.80
33903;DHT22;20194;50.950;5.346;2023-05-07T11:58:40;19.20;50.20
33903;DHT22;20194;50.950;5.346;2023-05-07T12:01:11;19.20;52.60
33903;DHT22;20194;50.950;5.346;2023-05-07T12:03:37;19.00;53.60
33903;DHT22;20194;50.950;5.346;2023-05-07T12:06:08;19.00;56.10
33903;DHT22;20194;50.950;5.346;2023-05-07T12:08:36;19.10;55.10
33903;DHT22;20194;50.950;5.346;2023-05-07T12:11:03;19.30;49.30
33903;DHT22;20194;50.950;5.346;2023-05-07T12:13:33;19.20;50.60
33903;DHT22;20194;50.950;5.346;2023-05-07T12:15:59;19.10;50.30
33903;DHT22;20194;50.950;5.346;2023-05-07T12:18:28;19.20;53.90
33903;DHT22;20194;50.950;5.346;2023-05-07T12:20:56;19.20;52.90
33903;DHT22;20194;50.950;5.346;2023-05-07T12:23:22;19.30;50.90
33903;DHT22;20194;50.950;5.346;2023-05-07T12:25:48;19.50;53.50
33903;DHT22;20194;50.950;5.346;2023-05-07T12:28:18;19.20;47.10
33903;DHT22;20194;50.950;5.346;2023-05-07T12:30:46;18.80;46.30
33903;DHT22;20194;50.950;5.346;2023-05-07T12:33:14;19.10;52.60
33903;DHT22;20194;50.950;5.346;2023-05-07T12:35:42;19.30;49.00
33903;DHT22;20194;50.950;5.346;2023-05-07T12:38:12;19.50;43.80
33903;DHT22;20194;50.950;5.346;2023-05-07T12:40:41;19.40;44.50
33903;DHT22;20194;50.950;5.346;2023-05-07T12:43:14;19.30;44.50
33903;DHT22;20194;50.950;5.346;2023-05-07T12:45:41;19.40;45.90
33903;DHT22;20194;50.950;5.346;2023-05-07T12:48:09;19.20;44.00
33903;DHT22;20194;50.950;5.346;2023-05-07T12:50:35;19.20;42.40
33903;DHT22;20194;50.950;5.346;2023-05-07T12:53:03;19.10;40.90
33903;DHT22;20194;50.950;5.346;2023-05-07T12:55:31;19.20;39.10
33903;DHT22;20194;50.950;5.346;2023-05-07T12:58:01;19.30;38.20
33903;DHT22;20194;50.950;5.346;2023-05-07T13:00:37;19.20;36.30
33903;DHT22;20194;50.950;5.346;2023-05-07T13:03:04;19.20;36.40
33903;DHT22;20194;50.950;5.346;2023-05-07T13:05:31;19.20;36.20
33903;DHT22;20194;50.950;5.346;2023-05-07T13:07:57;19.20;37.70
33903;DHT22;20194;50.950;5.346;2023-05-07T13:10:24;19.10;38.10
33903;DHT22;20194;50.950;5.346;2023-05-07T13:12:50;19.10;41.20
33903;DHT22;20194;50.950;5.346;2023-05-07T13:15:17;19.10;32.70
33903;DHT22;20194;50.950;5.346;2023-05-07T13:17:43;19.10;33.40
33903;DHT22;20194;50.950;5.346;2023-05-07T13:20:11;19.20;37.10
33903;DHT22;20194;50.950;5.346;2023-05-07T13:22:40;19.30;36.00
33903;DHT22;20194;50.950;5.346;2023-05-07T13:25:07;19.40;37.40
33903;DHT22;20194;50.950;5.346;2023-05-07T13:27:32;19.50;37.80
33903;DHT22;20194;50.950;5.346;2023-05-07T13:30:02;19.80;38.10
33903;DHT22;20194;50.950;5.346;2023-05-07T13:32:28;20.00;32.90
33903;DHT22;20194;50.950;5.346;2023-05-07T13:34:54;20.10;29.50
33903;DHT22;20194;50.950;5.346;2023-05-07T13:37:21;20.10;20.70
33903;DHT22;20194;50.950;5.346;2023-05-07T13:39:46;20.20;18.20
33903;DHT22;20194;50.950;5.346;2023-05-07T13:42:12;20.20;18.70
33903;DHT22;20194;50.950;5.346;2023-05-07T13:44:38;20.10;19.70
33903;DHT22;20194;50.950;5.346;2023-05-07T13:47:04;19.80;24.00
33903;DHT22;20194;50.950;5.346;2023-05-07T13:49:29;20.10;22.50
33903;DHT22;20194;50.950;5.346;2023-05-07T13:51:55;20.00;21.50
33903;DHT22;20194;50.950;5.346;2023-05-07T13:54:21;20.00;18.20
33903;DHT22;20194;50.950;5.346;2023-05-07T13:56:47;19.90;15.30
33903;DHT22;20194;50.950;5.346;2023-05-07T13:59:12;20.00;16.50
33903;DHT22;20194;50.950;5.346;2023-05-07T14:01:40;20.10;17.50
33903;DHT22;20194;50.950;5.346;2023-05-07T14:04:05;20.40;16.50
33903;DHT22;20194;50.950;5.346;2023-05-07T14:06:31;20.70;12.80
33903;DHT22;20194;50.950;5.346;2023-05-07T14:08:57;20.70;11.10
33903;DHT22;20194;50.950;5.346;2023-05-07T14:11:23;20.80;13.00
33903;DHT22;20194;50.950;5.346;2023-05-07T14:13:49;20.80;14.90
33903;DHT22;20194;50.950;5.346;2023-05-07T14:16:15;20.90;14.00
33903;DHT22;20194;50.950;5.346;2023-05-07T14:18:41;20.90;10.20
33903;DHT22;20194;50.950;5.346;2023-05-07T14:21:08;21.00;11.00
33903;DHT22;20194;50.950;5.346;2023-05-07T14:23:37;21.00;6.10
33903;DHT22;20194;50.950;5.346;2023-05-07T14:26:03;21.00;4.00
33903;DHT22;20194;50.950;5.346;2023-05-07T14:28:28;21.20;1.30
33903;DHT22;20194;50.950;5.346;2023-05-07T14:30:54;21.20;1.00
33903;DHT22;20194;50.950;5.346;2023-05-07T14:33:20;21.10;3.00
33903;DHT22;20194;50.950;5.346;2023-05-07T14:35:45;20.90;1.00
33903;DHT22;20194;50.950;5.346;2023-05-07T14:38:14;20.60;4.20
33903;DHT22;20194;50.950;5.346;2023-05-07T14:40:40;20.40;7.00
33903;DHT22;20194;50.950;5.346;2023-05-07T14:43:06;20.40;9.90
33903;DHT22;20194;50.950;5.346;2023-05-07T14:45:32;20.50;10.30
33903;DHT22;20194;50.950;5.346;2023-05-07T14:47:57;20.80;6.10
33903;DHT22;20194;50.950;5.346;2023-05-07T14:50:23;20.60;10.40
33903;DHT22;20194;50.950;5.346;2023-05-07T14:52:49;20.60;10.20
33903;DHT22;20194;50.950;5.346;2023-05-07T14:55:14;20.70;8.20
33903;DHT22;20194;50.950;5.346;2023-05-07T14:57:40;20.80;7.20
33903;DHT22;20194;50.950;5.346;2023-05-07T15:00:06;20.70;5.80
33903;DHT22;20194;50.950;5.346;2023-05-07T15:02:34;20.90;8.30
33903;DHT22;20194;50.950;5.346;2023-05-07T15:04:59;20.80;5.70
33903;DHT22;20194;50.950;5.346;2023-05-07T15:07:25;20.50;7.30
33903;DHT22;20194;50.950;5.346;2023-05-07T15:09:51;20.40;9.10
33903;DHT22;20194;50.950;5.346;2023-05-07T15:12:17;20.50;6.50
33903;DHT22;20194;50.950;5.346;2023-05-07T15:14:42;20.80;4.90
33903;DHT22;20194;50.950;5.346;2023-05-07T15:17:08;20.80;1.80
33903;DHT22;20194;50.950;5.346;2023-05-07T15:19:34;20.60;3.60
33903;DHT22;20194;50.950;5.346;2023-05-07T15:22:00;20.40;2.10
33903;DHT22;20194;50.950;5.346;2023-05-07T15:24:29;20.30;5.00
33903;DHT22;20194;50.950;5.346;2023-05-07T15:26:55;20.20;7.20
33903;DHT22;20194;50.950;5.346;2023-05-07T15:29:21;20.20;7.80
33903;DHT22;20194;50.950;5.346;2023-05-07T15:31:47;20.20;10.30
33903;DHT22;20194;50.950;5.346;2023-05-07T15:34:13;20.50;9.50
33903;DHT22;20194;50.950;5.346;2023-05-07T15:36:40;20.60;8.10
33903;DHT22;20194;50.950;5.346;2023-05-07T15:39:06;20.70;7.40
33903;DHT22;20194;50.950;5.346;2023-05-07T15:41:32;20.90;7.80
33903;DHT22;20194;50.950;5.346;2023-05-07T15:43:58;20.90;6.60
33903;DHT22;20194;50.950;5.346;2023-05-07T15:46:25;20.90;5.80